sensor_id;sensor_type;location;lat;lon;timestamp;pressure;altitude;pressure_sealevel;temperature;humidity
829;BME280;396;52.558;13.188;2023-03-02T00:02:17;102090.03;;;-1.13;90.36
829;BME280;396;52.558;13.188;2023-03-02T00:04:49;102088.41;;;-1.14;89.76
829;BME280;396;52.558;13.188;2023-03-02T00:07:21;102087.28;;;-1.05;89.29
829;BME280;396;52.558;13.188;2023-03-02T00:09:51;102090.09;;;-1.07;89.52
829;BME280;396;52.558;13.188;2023-03-02T00:12:19;102088.88;;;-1.25;90.93
829;BME280;396;52.558;13.188;2023-03-02T00:14:46;102090.59;;;-1.18;90.54
829;BME280;396;52.558;13.188;2023-03-02T00:17:12;102087.03;;;-1.10;90.67
829;BME280;396;52.558;13.188;2023-03-02T00:19:39;102086.09;;;-1.17;91.11
829;BME280;396;52.558;13.188;2023-03-02T00:22:06;102084.78;;;-1.07;90.32
829;BME280;396;52.558;13.188;2023-03-02T00:24:33;102095.66;;;-1.23;90.06
829;BME280;396;52.558;13.188;2023-03-02T00:27:01;102092.25;;;-1.17;90.37
829;BME280;396;52.558;13.188;2023-03-02T00:29:27;102084.28;;;-1.17;90.09
829;BME280;396;52.558;13.188;2023-03-02T00:31:54;102095.19;;;-1.27;89.26
829;BME280;396;52.558;13.188;2023-03-02T00:34:20;102086.31;;;-1.48;90.65
829;BME280;396;52.558;13.188;2023-03-02T00:36:47;102091.63;;;-1.48;89.83
829;BME280;396;52.558;13.188;2023-03-02T00:39:14;102089.97;;;-1.35;89.00
829;BME280;396;52.558;13.188;2023-03-02T00:41:44;102084.75;;;-1.43;89.67
829;BME280;396;52.558;13.188;2023-03-02T00:44:12;102079.53;;;-1.36;89.27
829;BME280;396;52.558;13.188;2023-03-02T00:46:42;102087.41;;;-1.28;89.07
829;BME280;396;52.558;13.188;2023-03-02T00:49:09;102087.41;;;-1.43;89.69
829;BME280;396;52.558;13.188;2023-03-02T00:51:35;102089.16;;;-1.50;90.36
829;BME280;396;52.558;13.188;2023-03-02T00:54:02;102096.13;;;-1.64;89.45
829;BME280;396;52.558;13.188;2023-03-02T00:56:29;102100.25;;;-1.61;90.68
829;BME280;396;52.558;13.188;2023-03-02T00:58:56;102085.94;;;-1.60;90.40
829;BME280;396;52.558;13.188;2023-03-02T01:01:24;102083.69;;;-1.63;90.12
829;BME280;396;52.558;13.188;2023-03-02T01:03:50;102089.44;;;-1.60;90.45
829;BME280;396;52.558;13.188;2023-03-02T01:06:18;102086.88;;;-1.53;90.37
829;BME280;396;52.558;13.188;2023-03-02T01:08:46;102085.06;;;-1.67;89.71
829;BME280;396;52.558;13.188;2023-03-02T01:11:13;102090.16;;;-1.66;89.45
829;BME280;396;52.558;13.188;2023-03-02T01:13:40;102084.66;;;-1.64;89.50
829;BME280;396;52.558;13.188;2023-03-02T01:16:07;102083.28;;;-1.60;88.74
829;BME280;396;52.558;13.188;2023-03-02T01:18:35;102077.63;;;-1.72;89.08
829;BME280;396;52.558;13.188;2023-03-02T01:21:05;102069.66;;;-1.72;88.89
829;BME280;396;52.558;13.188;2023-03-02T01:23:32;102063.53;;;-1.72;90.26
829;BME280;396;52.558;13.188;2023-03-02T01:25:59;102069.66;;;-1.72;90.76
829;BME280;396;52.558;13.188;2023-03-02T01:28:25;102068.94;;;-1.81;91.98
829;BME280;396;52.558;13.188;2023-03-02T01:30:52;102067.16;;;-1.73;92.47
829;BME280;396;52.558;13.188;2023-03-02T01:33:19;102056.28;;;-1.79;93.49
829;BME280;396;52.558;13.188;2023-03-02T01:35:48;102058.94;;;-1.79;93.81
829;BME280;396;52.558;13.188;2023-03-02T01:38:14;102061.44;;;-1.77;94.19
829;BME280;396;52.558;13.188;2023-03-02T01:44:03;102057.47;;;-1.66;92.53
829;BME280;396;52.558;13.188;2023-03-02T01:46:29;102058.84;;;-1.56;92.25
829;BME280;396;52.558;13.188;2023-03-02T01:49:00;102041.91;;;-1.55;92.27
829;BME280;396;52.558;13.188;2023-03-02T01:51:33;102051.69;;;-1.55;92.48
829;BME280;396;52.558;13.188;2023-03-02T01:54:05;102049.78;;;-1.61;92.75
829;BME280;396;52.558;13.188;2023-03-02T01:56:35;102045.13;;;-1.59;92.11
829;BME280;396;52.558;13.188;2023-03-02T01:59:06;102039.44;;;-1.71;92.18
829;BME280;396;52.558;13.188;2023-03-02T02:01:35;102037.97;;;-1.88;91.77
829;BME280;396;52.558;13.188;2023-03-02T02:04:03;102032.09;;;-1.98;90.86
829;BME280;396;52.558;13.188;2023-03-02T02:06:34;102032.81;;;-2.05;91.75
829;BME280;396;52.558;13.188;2023-03-02T02:09:04;102029.25;;;-2.12;93.06
829;BME280;396;52.558;13.188;2023-03-02T02:11:32;102026.69;;;-2.20;92.77
829;BME280;396;52.558;13.188;2023-03-02T02:14:01;102032.19;;;-2.07;92.67
829;BME280;396;52.558;13.188;2023-03-02T02:16:30;102028.31;;;-2.19;92.65
829;BME280;396;52.558;13.188;2023-03-02T02:18:57;102032.47;;;-2.16;93.42
829;BME280;396;52.558;13.188;2023-03-02T02:21:25;102025.66;;;-2.19;92.86
829;BME280;396;52.558;13.188;2023-03-02T02:24:04;102027.50;;;-2.19;93.24
829;BME280;396;52.558;13.188;2023-03-02T02:26:36;102035.09;;;-2.16;93.04
829;BME280;396;52.558;13.188;2023-03-02T02:29:07;102034.72;;;-2.28;92.43
829;BME280;396;52.558;13.188;2023-03-02T02:31:39;102031.72;;;-2.25;92.12
829;BME280;396;52.558;13.188;2023-03-02T02:34:13;102034.53;;;-2.26;92.52
829;BME280;396;52.558;13.188;2023-03-02T02:36:49;102029.13;;;-2.33;94.49
829;BME280;396;52.558;13.188;2023-03-02T02:39:21;102032.25;;;-2.30;95.35
829;BME280;396;52.558;13.188;2023-03-02T02:41:53;102026.69;;;-2.20;95.04
829;BME280;396;52.558;13.188;2023-03-02T02:44:20;102032.59;;;-2.33;94.07
829;BME280;396;52.558;13.188;2023-03-02T02:46:47;102032.25;;;-2.30;93.89
829;BME280;396;52.558;13.188;2023-03-02T02:49:24;102033.22;;;-2.31;93.52
829;BME280;396;52.558;13.188;2023-03-02T02:51:51;102022.81;;;-2.32;94.01
829;BME280;396;52.558;13.188;2023-03-02T02:54:18;102030.78;;;-2.17;93.02
829;BME280;396;52.558;13.188;2023-03-02T02:56:45;102021.19;;;-2.18;93.73
829;BME280;396;52.558;13.188;2023-03-02T02:59:19;102024.72;;;-2.26;94.23
829;BME280;396;52.558;13.188;2023-03-02T03:01:47;102022.25;;;-2.28;93.68
829;BME280;396;52.558;13.188;2023-03-02T03:04:17;102017.69;;;-2.34;92.42
829;BME280;396;52.558;13.188;2023-03-02T03:06:50;102025.28;;;-2.31;92.88
829;BME280;396;52.558;13.188;2023-03-02T03:09:16;102016.69;;;-2.18;92.85
829;BME280;396;52.558;13.188;2023-03-02T03:11:45;102016.06;;;-2.05;92.13
829;BME280;396;52.558;13.188;2023-03-02T03:14:16;102020.47;;;-2.12;91.98
829;BME280;396;52.558;13.188;2023-03-02T03:16:45;102014.13;;;-2.26;92.39
829;BME280;396;52.558;13.188;2023-03-02T03:19:16;102020.34;;;-2.19;92.68
829;BME280;396;52.558;13.188;2023-03-02T03:21:44;102009.66;;;-2.25;93.93
829;BME280;396;52.558;13.188;2023-03-02T03:24:11;102017.22;;;-2.37;95.23
829;BME280;396;52.558;13.188;2023-03-02T03:26:37;102017.94;;;-2.43;95.82
829;BME280;396;52.558;13.188;2023-03-02T03:29:04;102013.56;;;-2.36;95.44
829;BME280;396;52.558;13.188;2023-03-02T03:31:32;102019.13;;;-2.31;94.79
829;BME280;396;52.558;13.188;2023-03-02T03:33:59;102018.25;;;-2.23;94.36
829;BME280;396;52.558;13.188;2023-03-02T03:36:26;102014.97;;;-2.25;94.36
829;BME280;396;52.558;13.188;2023-03-02T03:38:54;102013.75;;;-2.38;95.33
829;BME280;396;52.558;13.188;2023-03-02T03:41:20;102016.81;;;-2.49;95.81
829;BME280;396;52.558;13.188;2023-03-02T03:43:47;102009.13;;;-2.44;95.86
829;BME280;396;52.558;13.188;2023-03-02T03:46:14;102011.44;;;-2.41;95.71
829;BME280;396;52.558;13.188;2023-03-02T03:48:42;102012.72;;;-2.51;94.59
829;BME280;396;52.558;13.188;2023-03-02T03:51:09;102012.06;;;-2.54;94.24
829;BME280;396;52.558;13.188;2023-03-02T03:53:36;102013.81;;;-2.46;94.27
829;BME280;396;52.558;13.188;2023-03-02T03:56:03;102001.56;;;-2.47;93.41
829;BME280;396;52.558;13.188;2023-03-02T03:58:30;102013.06;;;-2.55;92.89
829;BME280;396;52.558;13.188;2023-03-02T04:00:57;102005.94;;;-2.54;92.70
829;BME280;396;52.558;13.188;2023-03-02T04:03:24;102017.59;;;-2.63;92.68
829;BME280;396;52.558;13.188;2023-03-02T04:05:53;102004.75;;;-2.51;93.43
829;BME280;396;52.558;13.188;2023-03-02T04:08:21;102000.44;;;-2.53;93.14
829;BME280;396;52.558;13.188;2023-03-02T04:10:47;102000.69;;;-2.62;92.82
829;BME280;396;52.558;13.188;2023-03-02T04:13:14;102001.59;;;-2.70;93.12
829;BME280;396;52.558;13.188;2023-03-02T04:15:41;102000.22;;;-2.66;93.16
829;BME280;396;52.558;13.188;2023-03-02T04:18:08;102000.75;;;-2.70;92.80
829;BME280;396;52.558;13.188;2023-03-02T04:20:34;101997.53;;;-2.81;92.72
829;BME280;396;52.558;13.188;2023-03-02T04:23:02;102003.84;;;-2.82;93.15
829;BME280;396;52.558;13.188;2023-03-02T04:25:29;102005.81;;;-2.84;92.70
829;BME280;396;52.558;13.188;2023-03-02T04:27:56;102006.53;;;-2.90;92.97
829;BME280;396;52.558;13.188;2023-03-02T04:30:25;102012.66;;;-2.89;93.01
829;BME280;396;52.558;13.188;2023-03-02T04:32:52;102013.16;;;-2.86;93.62
829;BME280;396;52.558;13.188;2023-03-02T04:35:19;102013.72;;;-2.75;94.52
829;BME280;396;52.558;13.188;2023-03-02T04:37:46;102018.53;;;-2.79;93.50
829;BME280;396;52.558;13.188;2023-03-02T04:40:15;102023.16;;;-2.73;92.75
829;BME280;396;52.558;13.188;2023-03-02T04:42:42;102024.38;;;-2.84;94.07
829;BME280;396;52.558;13.188;2023-03-02T04:45:11;102030.97;;;-2.80;94.08
829;BME280;396;52.558;13.188;2023-03-02T04:47:37;102037.00;;;-2.86;94.01
829;BME280;396;52.558;13.188;2023-03-02T04:50:05;102026.94;;;-2.90;94.07
829;BME280;396;52.558;13.188;2023-03-02T04:52:32;102029.53;;;-2.82;94.28
829;BME280;396;52.558;13.188;2023-03-02T04:54:58;102027.63;;;-2.73;94.94
829;BME280;396;52.558;13.188;2023-03-02T04:57:26;102023.03;;;-2.57;94.58
829;BME280;396;52.558;13.188;2023-03-02T04:59:53;102019.63;;;-2.65;94.04
829;BME280;396;52.558;13.188;2023-03-02T05:02:19;102020.59;;;-2.66;93.37
829;BME280;396;52.558;13.188;2023-03-02T05:04:46;102022.16;;;-2.72;93.44
829;BME280;396;52.558;13.188;2023-03-02T05:07:12;102018.88;;;-2.74;92.67
829;BME280;396;52.558;13.188;2023-03-02T05:09:39;102018.09;;;-2.83;92.47
829;BME280;396;52.558;13.188;2023-03-02T05:12:06;102008.13;;;-2.81;93.55
829;BME280;396;52.558;13.188;2023-03-02T05:14:34;102015.59;;;-2.84;92.57
829;BME280;396;52.558;13.188;2023-03-02T05:17:00;102011.50;;;-2.87;93.00
829;BME280;396;52.558;13.188;2023-03-02T05:19:27;102009.66;;;-2.86;93.63
829;BME280;396;52.558;13.188;2023-03-02T05:21:54;102019.16;;;-2.92;94.37
829;BME280;396;52.558;13.188;2023-03-02T05:24:20;102010.69;;;-2.87;94.75
829;BME280;396;52.558;13.188;2023-03-02T05:26:47;102012.13;;;-2.85;95.01
829;BME280;396;52.558;13.188;2023-03-02T05:29:13;102012.94;;;-2.84;95.41
829;BME280;396;52.558;13.188;2023-03-02T05:31:43;102015.59;;;-2.84;95.99
829;BME280;396;52.558;13.188;2023-03-02T05:34:11;102013.84;;;-2.92;96.47
829;BME280;396;52.558;13.188;2023-03-02T05:36:38;102024.31;;;-2.75;95.94
829;BME280;396;52.558;13.188;2023-03-02T05:39:05;102015.50;;;-2.68;95.82
829;BME280;396;52.558;13.188;2023-03-02T05:41:33;102014.41;;;-2.59;95.33
829;BME280;396;52.558;13.188;2023-03-02T05:44:00;102013.16;;;-2.48;94.81
829;BME280;396;52.558;13.188;2023-03-02T05:46:26;102009.63;;;-2.40;94.70
829;BME280;396;52.558;13.188;2023-03-02T05:48:55;102011.91;;;-2.37;95.21
829;BME280;396;52.558;13.188;2023-03-02T05:51:21;102016.69;;;-2.33;95.43
829;BME280;396;52.558;13.188;2023-03-02T05:53:48;102012.00;;;-2.31;96.39
829;BME280;396;52.558;13.188;2023-03-02T05:56:14;102011.44;;;-2.41;96.96
829;BME280;396;52.558;13.188;2023-03-02T05:58:41;102011.09;;;-2.38;97.64
829;BME280;396;52.558;13.188;2023-03-02T06:01:08;102014.03;;;-2.33;97.14
829;BME280;396;52.558;13.188;2023-03-02T06:03:36;102023.28;;;-2.29;99.46
829;BME280;396;52.558;13.188;2023-03-02T06:06:04;102023.13;;;-2.12;99.17
829;BME280;396;52.558;13.188;2023-03-02T06:08:31;102028.53;;;-1.91;98.94
829;BME280;396;52.558;13.188;2023-03-02T06:10:58;102033.81;;;-1.91;99.58
829;BME280;396;52.558;13.188;2023-03-02T06:13:24;102032.28;;;-1.85;100.00
829;BME280;396;52.558;13.188;2023-03-02T06:15:51;102034.38;;;-1.66;98.64
829;BME280;396;52.558;13.188;2023-03-02T06:18:18;102036.75;;;-1.56;98.31
829;BME280;396;52.558;13.188;2023-03-02T06:20:44;102032.72;;;-1.52;97.90
829;BME280;396;52.558;13.188;2023-03-02T06:23:12;102043.25;;;-1.44;98.91
829;BME280;396;52.558;13.188;2023-03-02T06:25:39;102045.00;;;-1.36;99.13
829;BME280;396;52.558;13.188;2023-03-02T06:28:12;102044.72;;;-1.41;99.60
829;BME280;396;52.558;13.188;2023-03-02T06:30:38;102045.25;;;-1.31;99.23
829;BME280;396;52.558;13.188;2023-03-02T06:33:05;102041.03;;;-1.25;99.56
829;BME280;396;52.558;13.188;2023-03-02T06:35:32;102044.75;;;-1.20;99.60
829;BME280;396;52.558;13.188;2023-03-02T06:37:59;102047.97;;;-1.10;99.59
829;BME280;396;52.558;13.188;2023-03-02T06:40:27;102041.72;;;-1.17;100.00
829;BME280;396;52.558;13.188;2023-03-02T06:42:54;102043.56;;;-1.17;100.00
829;BME280;396;52.558;13.188;2023-03-02T06:45:20;102049.41;;;-1.07;100.00
829;BME280;396;52.558;13.188;2023-03-02T06:47:47;102046.00;;;-1.01;100.00
829;BME280;396;52.558;13.188;2023-03-02T06:50:13;102047.91;;;-0.95;100.00
829;BME280;396;52.558;13.188;2023-03-02T06:52:40;102051.91;;;-0.84;100.00
829;BME280;396;52.558;13.188;2023-03-02T06:55:07;102054.31;;;-0.89;100.00
829;BME280;396;52.558;13.188;2023-03-02T06:57:36;102045.38;;;-0.82;100.00
829;BME280;396;52.558;13.188;2023-03-02T07:00:04;102052.34;;;-0.81;100.00
829;BME280;396;52.558;13.188;2023-03-02T07:02:34;102050.59;;;-0.73;100.00
829;BME280;396;52.558;13.188;2023-03-02T07:05:00;102053.38;;;-0.60;100.00
829;BME280;396;52.558;13.188;2023-03-02T07:07:27;102048.53;;;-0.50;100.00
829;BME280;396;52.558;13.188;2023-03-02T07:09:54;102058.69;;;-0.39;100.00
829;BME280;396;52.558;13.188;2023-03-02T07:12:20;102050.75;;;-0.32;100.00
829;BME280;396;52.558;13.188;2023-03-02T07:14:48;102054.44;;;-0.33;100.00
829;BME280;396;52.558;13.188;2023-03-02T07:17:15;102054.91;;;-0.23;100.00
829;BME280;396;52.558;13.188;2023-03-02T07:19:41;102055.69;;;-0.29;100.00
829;BME280;396;52.558;13.188;2023-03-02T07:22:08;102048.31;;;-0.27;100.00
829;BME280;396;52.558;13.188;2023-03-02T07:24:35;102053.91;;;-0.22;100.00
829;BME280;396;52.558;13.188;2023-03-02T07:27:01;102048.84;;;-0.17;100.00
829;BME280;396;52.558;13.188;2023-03-02T07:29:28;102035.75;;;-0.12;100.00
829;BME280;396;52.558;13.188;2023-03-02T07:31:56;102042.34;;;-0.08;100.00
829;BME280;396;52.558;13.188;2023-03-02T07:34:25;102040.16;;;0.03;100.00
829;BME280;396;52.558;13.188;2023-03-02T07:36:52;102043.69;;;0.10;100.00
829;BME280;396;52.558;13.188;2023-03-02T07:39:19;102050.94;;;0.22;100.00
829;BME280;396;52.558;13.188;2023-03-02T07:41:45;102053.47;;;0.37;100.00
829;BME280;396;52.558;13.188;2023-03-02T07:44:12;102048.00;;;0.52;100.00
829;BME280;396;52.558;13.188;2023-03-02T07:46:39;102052.56;;;0.58;99.30
829;BME280;396;52.558;13.188;2023-03-02T07:49:07;102050.13;;;0.63;99.24
829;BME280;396;52.558;13.188;2023-03-02T07:51:33;102057.53;;;0.68;98.81
829;BME280;396;52.558;13.188;2023-03-02T07:54:00;102058.28;;;0.55;98.64
829;BME280;396;52.558;13.188;2023-03-02T07:56:29;102047.47;;;0.70;98.87
829;BME280;396;52.558;13.188;2023-03-02T07:58:55;102048.53;;;0.82;98.29
829;BME280;396;52.558;13.188;2023-03-02T08:01:22;102046.47;;;0.78;97.66
829;BME280;396;52.558;13.188;2023-03-02T08:03:49;102051.59;;;0.72;97.60
829;BME280;396;52.558;13.188;2023-03-02T08:06:17;102048.94;;;0.72;97.44
829;BME280;396;52.558;13.188;2023-03-02T08:08:43;102051.81;;;0.71;96.31
829;BME280;396;52.558;13.188;2023-03-02T08:11:11;102044.81;;;0.70;96.95
829;BME280;396;52.558;13.188;2023-03-02T08:13:39;102046.88;;;0.74;96.45
829;BME280;396;52.558;13.188;2023-03-02T08:16:08;102051.84;;;0.91;96.11
829;BME280;396;52.558;13.188;2023-03-02T08:18:35;102050.66;;;1.00;95.79
829;BME280;396;52.558;13.188;2023-03-02T08:21:02;102058.09;;;1.11;94.87
829;BME280;396;52.558;13.188;2023-03-02T08:23:30;102051.94;;;1.11;94.24
829;BME280;396;52.558;13.188;2023-03-02T08:25:57;102058.47;;;1.08;93.47
829;BME280;396;52.558;13.188;2023-03-02T08:28:23;102058.47;;;1.15;93.52
829;BME280;396;52.558;13.188;2023-03-02T08:30:54;102051.94;;;1.17;93.67
829;BME280;396;52.558;13.188;2023-03-02T08:33:21;102045.34;;;1.07;94.10
829;BME280;396;52.558;13.188;2023-03-02T08:35:54;102049.19;;;0.84;95.39
829;BME280;396;52.558;13.188;2023-03-02T08:38:21;102039.50;;;0.83;96.00
829;BME280;396;52.558;13.188;2023-03-02T08:40:49;102048.38;;;0.90;96.33
829;BME280;396;52.558;13.188;2023-03-02T08:43:16;102042.81;;;0.92;96.56
829;BME280;396;52.558;13.188;2023-03-02T08:45:43;102039.72;;;0.82;97.10
829;BME280;396;52.558;13.188;2023-03-02T08:48:10;102040.75;;;0.87;97.44
829;BME280;396;52.558;13.188;2023-03-02T08:50:36;102037.47;;;0.85;97.80
829;BME280;396;52.558;13.188;2023-03-02T08:53:03;102045.31;;;0.93;97.93
829;BME280;396;52.558;13.188;2023-03-02T08:55:33;102037.09;;;0.95;97.65
829;BME280;396;52.558;13.188;2023-03-02T08:58:01;102038.94;;;1.01;97.98
829;BME280;396;52.558;13.188;2023-03-02T09:00:28;102032.66;;;1.15;97.36
829;BME280;396;52.558;13.188;2023-03-02T09:02:54;102027.94;;;1.31;97.36
829;BME280;396;52.558;13.188;2023-03-02T09:05:21;102035.13;;;1.50;96.88
829;BME280;396;52.558;13.188;2023-03-02T09:07:48;102029.41;;;1.60;96.36
829;BME280;396;52.558;13.188;2023-03-02T09:10:14;102028.97;;;1.56;95.32
829;BME280;396;52.558;13.188;2023-03-02T09:12:41;102020.56;;;1.66;95.61
829;BME280;396;52.558;13.188;2023-03-02T09:15:09;102012.13;;;1.69;94.74
829;BME280;396;52.558;13.188;2023-03-02T09:17:36;102009.25;;;1.64;95.05
829;BME280;396;52.558;13.188;2023-03-02T09:20:03;102007.41;;;1.64;94.32
829;BME280;396;52.558;13.188;2023-03-02T09:22:30;102012.97;;;1.69;94.20
829;BME280;396;52.558;13.188;2023-03-02T09:24:56;102009.66;;;1.61;94.26
829;BME280;396;52.558;13.188;2023-03-02T09:27:23;102017.47;;;1.56;95.88
829;BME280;396;52.558;13.188;2023-03-02T09:29:49;102016.66;;;1.82;95.40
829;BME280;396;52.558;13.188;2023-03-02T09:32:17;102010.84;;;1.98;95.24
829;BME280;396;52.558;13.188;2023-03-02T09:34:44;102012.50;;;1.99;93.33
829;BME280;396;52.558;13.188;2023-03-02T09:37:11;102006.53;;;1.97;92.88
829;BME280;396;52.558;13.188;2023-03-02T09:39:37;102010.84;;;1.98;93.02
829;BME280;396;52.558;13.188;2023-03-02T09:42:25;102016.16;;;2.18;92.52
829;BME280;396;52.558;13.188;2023-03-02T09:45:04;102016.56;;;2.15;90.87
829;BME280;396;52.558;13.188;2023-03-02T09:47:42;102013.50;;;2.18;91.04
829;BME280;396;52.558;13.188;2023-03-02T09:50:24;102014.94;;;2.14;90.27
829;BME280;396;52.558;13.188;2023-03-02T09:55:42;102023.94;;;2.33;91.35
829;BME280;396;52.558;13.188;2023-03-02T09:58:14;102020.63;;;2.37;91.81
829;BME280;396;52.558;13.188;2023-03-02T10:00:43;102021.03;;;2.41;92.23
829;BME280;396;52.558;13.188;2023-03-02T10:03:15;102017.69;;;2.52;91.84
829;BME280;396;52.558;13.188;2023-03-02T10:05:45;102024.63;;;2.66;91.83
829;BME280;396;52.558;13.188;2023-03-02T10:08:12;102026.69;;;2.71;90.53
829;BME280;396;52.558;13.188;2023-03-02T10:10:44;102023.13;;;2.84;89.41
829;BME280;396;52.558;13.188;2023-03-02T10:13:22;102020.81;;;2.87;88.44
829;BME280;396;52.558;13.188;2023-03-02T10:15:58;102016.69;;;2.91;87.66
829;BME280;396;52.558;13.188;2023-03-02T10:18:33;102020.38;;;2.90;86.89
829;BME280;396;52.558;13.188;2023-03-02T10:21:05;102019.97;;;2.93;86.23
829;BME280;396;52.558;13.188;2023-03-02T10:23:40;102025.53;;;2.92;86.07
829;BME280;396;52.558;13.188;2023-03-02T10:26:20;102020.88;;;2.81;86.68
829;BME280;396;52.558;13.188;2023-03-02T10:28:53;102008.22;;;2.94;86.37
829;BME280;396;52.558;13.188;2023-03-02T10:31:25;102017.66;;;3.03;85.94
829;BME280;396;52.558;13.188;2023-03-02T10:33:54;102020.72;;;3.07;85.24
829;BME280;396;52.558;13.188;2023-03-02T10:36:23;102020.75;;;3.00;85.97
829;BME280;396;52.558;13.188;2023-03-02T10:38:51;102018.69;;;3.02;86.49
829;BME280;396;52.558;13.188;2023-03-02T10:41:22;102021.38;;;2.96;86.98
829;BME280;396;52.558;13.188;2023-03-02T10:43:53;102009.44;;;2.98;85.90
829;BME280;396;52.558;13.188;2023-03-02T10:46:21;102018.28;;;2.99;86.96
829;BME280;396;52.558;13.188;2023-03-02T10:48:49;102019.56;;;2.90;87.96
829;BME280;396;52.558;13.188;2023-03-02T10:51:24;102020.09;;;3.05;87.84
829;BME280;396;52.558;13.188;2023-03-02T10:54:08;102012.13;;;2.92;88.58
829;BME280;396;52.558;13.188;2023-03-02T10:56:36;102004.66;;;2.69;89.30
829;BME280;396;52.558;13.188;2023-03-02T10:59:12;102006.03;;;2.85;89.71
829;BME280;396;52.558;13.188;2023-03-02T11:01:43;102007.63;;;2.92;89.55
829;BME280;396;52.558;13.188;2023-03-02T11:04:13;102013.00;;;2.86;89.32
829;BME280;396;52.558;13.188;2023-03-02T11:06:42;102003.09;;;2.93;89.13
829;BME280;396;52.558;13.188;2023-03-02T11:09:12;102004.00;;;2.80;90.50
829;BME280;396;52.558;13.188;2023-03-02T11:11:48;102006.44;;;2.82;91.11
829;BME280;396;52.558;13.188;2023-03-02T11:14:16;102002.34;;;2.79;91.20
829;BME280;396;52.558;13.188;2023-03-02T11:16:43;102004.19;;;2.78;90.87
829;BME280;396;52.558;13.188;2023-03-02T11:19:12;101993.81;;;2.57;91.09
829;BME280;396;52.558;13.188;2023-03-02T11:21:44;101994.59;;;2.64;91.75
829;BME280;396;52.558;13.188;2023-03-02T11:24:16;101992.56;;;2.60;91.46
829;BME280;396;52.558;13.188;2023-03-02T11:26:48;101982.25;;;2.63;92.05
829;BME280;396;52.558;13.188;2023-03-02T11:29:24;101988.03;;;2.98;91.09
829;BME280;396;52.558;13.188;2023-03-02T11:31:58;101984.78;;;3.21;89.64
829;BME280;396;52.558;13.188;2023-03-02T11:34:32;101981.78;;;3.61;88.09
829;BME280;396;52.558;13.188;2023-03-02T11:37:15;101981.28;;;3.89;84.99
829;BME280;396;52.558;13.188;2023-03-02T11:39:55;101981.09;;;3.91;83.08
829;BME280;396;52.558;13.188;2023-03-02T11:42:28;101969.78;;;4.25;84.32
829;BME280;396;52.558;13.188;2023-03-02T11:44:58;101967.72;;;4.88;81.74
829;BME280;396;52.558;13.188;2023-03-02T11:47:26;101974.38;;;5.62;77.34
829;BME280;396;52.558;13.188;2023-03-02T11:49:56;101982.38;;;6.44;73.12
829;BME280;396;52.558;13.188;2023-03-02T11:52:29;101979.13;;;7.67;69.79
829;BME280;396;52.558;13.188;2023-03-02T11:54:59;101976.81;;;8.36;65.14
829;BME280;396;52.558;13.188;2023-03-02T11:57:31;101974.47;;;9.53;59.56
829;BME280;396;52.558;13.188;2023-03-02T11:59:59;101983.16;;;10.60;56.25
829;BME280;396;52.558;13.188;2023-03-02T12:02:26;101975.13;;;11.36;53.99
829;BME280;396;52.558;13.188;2023-03-02T12:05:01;101975.91;;;11.78;51.99
829;BME280;396;52.558;13.188;2023-03-02T12:07:29;101978.22;;;12.25;50.94
829;BME280;396;52.558;13.188;2023-03-02T12:10:01;101973.75;;;12.99;49.43
829;BME280;396;52.558;13.188;2023-03-02T12:12:40;101977.38;;;13.29;45.80
829;BME280;396;52.558;13.188;2023-03-02T12:15:39;101968.84;;;13.94;45.28
829;BME280;396;52.558;13.188;2023-03-02T12:18:42;101964.44;;;15.02;43.48
829;BME280;396;52.558;13.188;2023-03-02T12:21:11;101968.38;;;15.75;42.97
829;BME280;396;52.558;13.188;2023-03-02T12:23:54;101960.41;;;16.06;40.42
829;BME280;396;52.558;13.188;2023-03-02T12:26:26;101962.44;;;16.01;40.60
829;BME280;396;52.558;13.188;2023-03-02T12:29:00;101953.41;;;16.14;40.66
829;BME280;396;52.558;13.188;2023-03-02T12:31:39;101953.47;;;15.21;41.71
829;BME280;396;52.558;13.188;2023-03-02T12:34:24;101956.16;;;15.73;41.19
829;BME280;396;52.558;13.188;2023-03-02T12:36:54;101946.84;;;15.87;41.43
829;BME280;396;52.558;13.188;2023-03-02T12:39:57;101946.81;;;16.29;40.53
829;BME280;396;52.558;13.188;2023-03-02T12:42:40;101949.22;;;16.44;39.50
829;BME280;396;52.558;13.188;2023-03-02T12:45:19;101940.56;;;16.14;40.26
829;BME280;396;52.558;13.188;2023-03-02T12:47:55;101939.09;;;15.62;40.46
829;BME280;396;52.558;13.188;2023-03-02T12:50:25;101943.69;;;14.02;43.20
829;BME280;396;52.558;13.188;2023-03-02T12:52:56;101926.69;;;14.91;43.74
829;BME280;396;52.558;13.188;2023-03-02T12:55:25;101931.31;;;15.23;42.47
829;BME280;396;52.558;13.188;2023-03-02T12:57:53;101924.69;;;15.29;42.86
829;BME280;396;52.558;13.188;2023-03-02T13:00:22;101926.03;;;15.45;42.33
829;BME280;396;52.558;13.188;2023-03-02T13:02:52;101922.28;;;15.41;41.43
829;BME280;396;52.558;13.188;2023-03-02T13:05:21;101916.25;;;15.11;42.00
829;BME280;396;52.558;13.188;2023-03-02T13:07:55;101926.59;;;14.96;42.61
829;BME280;396;52.558;13.188;2023-03-02T13:10:28;101915.84;;;14.85;42.63
829;BME280;396;52.558;13.188;2023-03-02T13:12:56;101917.38;;;14.92;42.61
829;BME280;396;52.558;13.188;2023-03-02T13:15:23;101918.56;;;13.33;44.42
829;BME280;396;52.558;13.188;2023-03-02T13:17:54;101914.56;;;12.86;46.61
829;BME280;396;52.558;13.188;2023-03-02T13:20:24;101918.44;;;12.80;47.30
829;BME280;396;52.558;13.188;2023-03-02T13:22:51;101911.75;;;12.57;47.50
829;BME280;396;52.558;13.188;2023-03-02T13:25:28;101908.25;;;12.02;47.92
829;BME280;396;52.558;13.188;2023-03-02T13:27:56;101906.53;;;10.85;50.64
829;BME280;396;52.558;13.188;2023-03-02T13:30:26;101905.69;;;10.79;51.65
829;BME280;396;52.558;13.188;2023-03-02T13:32:58;101902.66;;;9.30;55.74
829;BME280;396;52.558;13.188;2023-03-02T13:35:28;101902.06;;;8.91;58.19
829;BME280;396;52.558;13.188;2023-03-02T13:37:57;101905.59;;;9.28;56.74
829;BME280;396;52.558;13.188;2023-03-02T13:40:45;101904.91;;;9.43;56.50
829;BME280;396;52.558;13.188;2023-03-02T13:43:34;101900.91;;;9.56;55.91